Elong Elong — V3PK3 — position and weather

sailwx.info

Track history (hours):
 
Tides and Currents Weather Stations Pressure Air Temp Water Temp Dewpoint Dewpoint Depression Visibility Wind Speed Wind Dir Waves Ship Positions

Elong Elong

Last reported at 2017-Sep-18 20:46 UTC. Time now 2017-Sep-19 17:17 UTC.
Position N 37°38' E 010°20'.

Length 167 m; draft 9.8 m.

Type: Cargo ship. MMSI: 312691000.

Date/timePositionNaut miles runAvg speedWind from/ knotsBaromVisibWave heightAir tempDewpointWater temp
2017-Sep-18 20:46N 37°38' E 010°20'10010.4
2017-Sep-18 11:14N 37°03' E 012°17'2 9.7
2017-Sep-18 11:00N 37°02' E 012°20'5 9.5
2017-Sep-18 10:29N 37°00' E 012°26'6 9.7
2017-Sep-18 09:54N 36°59' E 012°32'6 9.7
2017-Sep-18 09:15N 36°57' E 012°40'4 9.6
2017-Sep-18 08:50N 36°56' E 012°45'3 9.8
2017-Sep-18 08:30N 36°55' E 012°49'610.0
2017-Sep-18 07:57N 36°53' E 012°55'410.1
2017-Sep-18 07:30N 36°51' E 013°00'510.4
2017-Sep-18 07:00N 36°50' E 013°07'510.4
2017-Sep-18 06:30N 36°48' E 013°13'510.3
2017-Sep-18 06:00N 36°46' E 013°19'510.4
2017-Sep-18 05:30N 36°45' E 013°25'510.3
2017-Sep-18 04:59N 36°43' E 013°31'810.3
2017-Sep-18 04:12N 36°41' E 013°41'810.3
2017-Sep-18 03:24N 36°38' E 013°51'410.4
2017-Sep-18 03:00N 36°37' E 013°56'510.2
2017-Sep-18 02:30N 36°35' E 014°02'1110.1
2017-Sep-18 01:26N 36°32' E 014°14'1110.3
2017-Sep-18 00:22N 36°29' E 014°27'410.6
2017-Sep-18 00:00N 36°28' E 014°32'1110.6
2017-Sep-17 22:56N 36°24' E 014°45'410.2
2017-Sep-17 22:30N 36°23' E 014°51'7210.6
2017-Sep-17 15:40N 36°21' E 016°20'210.8
2017-Sep-17 15:30N 36°21' E 016°23'610.8
2017-Sep-17 14:59N 36°21' E 016°30'2610.6
2017-Sep-17 12:30N 36°21' E 017°02'510.5
2017-Sep-17 12:00N 36°21' E 017°09'1210.7
2017-Sep-17 10:52N 36°21' E 017°24'410.9
2017-Sep-17 10:29N 36°21' E 017°29'510.7
2017-Sep-17 09:59N 36°21' E 017°36'510.5
2017-Sep-17 09:30N 36°21' E 017°42'510.4
2017-Sep-17 09:00N 36°21' E 017°48'510.2
2017-Sep-17 08:30N 36°21' E 017°55'510.3
2017-Sep-17 08:00N 36°21' E 018°01'510.2
2017-Sep-17 07:30N 36°21' E 018°08'510.1
2017-Sep-17 07:00N 36°21' E 018°14'510.4
2017-Sep-17 06:30N 36°21' E 018°20'510.5
2017-Sep-17 06:00N 36°21' E 018°27'510.6
2017-Sep-17 05:30N 36°21' E 018°33'510.7
2017-Sep-17 05:00N 36°21' E 018°40'510.9
2017-Sep-17 04:30N 36°21' E 018°47'611.3
2017-Sep-17 04:00N 36°21' E 018°54'611.2
2017-Sep-17 03:30N 36°21' E 019°01'611.3
2017-Sep-17 02:58N 36°22' E 019°08'511.0
2017-Sep-17 02:30N 36°22' E 019°15'711.2
2017-Sep-17 01:53N 36°21' E 019°23'411.2
2017-Sep-17 01:30N 36°21' E 019°28'1011.1
2017-Sep-17 00:38N 36°21' E 019°40'110.8
2017-Sep-17 00:30N 36°21' E 019°42'510.8
2017-Sep-17 00:00N 36°21' E 019°49'510.7
2017-Sep-16 23:30N 36°20' E 019°56'510.9
2017-Sep-16 23:00N 36°21' E 020°02'611.0
2017-Sep-16 22:30N 36°21' E 020°09'1711.0
2017-Sep-16 20:56N 36°21' E 020°31'511.0
2017-Sep-16 20:30N 36°22' E 020°36'1510.7
2017-Sep-16 19:09N 36°22' E 020°54'510.2
2017-Sep-16 18:39N 36°22' E 021°01'20 9.9
2017-Sep-16 16:39N 36°21' E 021°25'2 9.7
2017-Sep-16 16:28N 36°21' E 021°28'4 9.6
2017-Sep-16 16:00N 36°21' E 021°33'5 9.6
2017-Sep-16 15:30N 36°21' E 021°39'15 9.8
2017-Sep-16 13:58N 36°21' E 021°58'82 9.3
2017-Sep-16 05:12N 36°50' E 023°33'211.1
2017-Sep-16 05:00N 36°52' E 023°34'511.2
2017-Sep-16 04:30N 36°57' E 023°37'511.0
2017-Sep-16 04:00N 37°02' E 023°41'610.7
2017-Sep-16 03:27N 37°07' E 023°45'510.3
2017-Sep-16 03:00N 37°11' E 023°48'  
Track history (hours):
 
Tides and Currents Weather Stations Pressure Air Temp Water Temp Dewpoint Dewpoint Depression Visibility Wind Speed Wind Dir Waves Ship Positions

Elong Elong

Last reported at 2017-Sep-18 20:46 UTC. Time now 2017-Sep-19 17:17 UTC.
Position N 37°38' E 010°20'.

Length 167 m; draft 9.8 m.

Type: Cargo ship. MMSI: 312691000.

Date/timePositionNaut miles runAvg speedWind from/ knotsBaromVisibWave heightAir tempDewpointWater temp
2017-Sep-18 20:46N 37°38' E 010°20'10010.4
2017-Sep-18 11:14N 37°03' E 012°17'2 9.7
2017-Sep-18 11:00N 37°02' E 012°20'5 9.5
2017-Sep-18 10:29N 37°00' E 012°26'6 9.7
2017-Sep-18 09:54N 36°59' E 012°32'6 9.7
2017-Sep-18 09:15N 36°57' E 012°40'4 9.6
2017-Sep-18 08:50N 36°56' E 012°45'3 9.8
2017-Sep-18 08:30N 36°55' E 012°49'610.0
2017-Sep-18 07:57N 36°53' E 012°55'410.1
2017-Sep-18 07:30N 36°51' E 013°00'510.4
2017-Sep-18 07:00N 36°50' E 013°07'510.4
2017-Sep-18 06:30N 36°48' E 013°13'510.3
2017-Sep-18 06:00N 36°46' E 013°19'510.4
2017-Sep-18 05:30N 36°45' E 013°25'510.3
2017-Sep-18 04:59N 36°43' E 013°31'810.3
2017-Sep-18 04:12N 36°41' E 013°41'810.3
2017-Sep-18 03:24N 36°38' E 013°51'410.4
2017-Sep-18 03:00N 36°37' E 013°56'510.2
2017-Sep-18 02:30N 36°35' E 014°02'1110.1
2017-Sep-18 01:26N 36°32' E 014°14'1110.3
2017-Sep-18 00:22N 36°29' E 014°27'410.6
2017-Sep-18 00:00N 36°28' E 014°32'1110.6
2017-Sep-17 22:56N 36°24' E 014°45'410.2
2017-Sep-17 22:30N 36°23' E 014°51'7210.6
2017-Sep-17 15:40N 36°21' E 016°20'210.8
2017-Sep-17 15:30N 36°21' E 016°23'610.8
2017-Sep-17 14:59N 36°21' E 016°30'2610.6
2017-Sep-17 12:30N 36°21' E 017°02'510.5
2017-Sep-17 12:00N 36°21' E 017°09'1210.7
2017-Sep-17 10:52N 36°21' E 017°24'410.9
2017-Sep-17 10:29N 36°21' E 017°29'510.7
2017-Sep-17 09:59N 36°21' E 017°36'510.5
2017-Sep-17 09:30N 36°21' E 017°42'510.4
2017-Sep-17 09:00N 36°21' E 017°48'510.2
2017-Sep-17 08:30N 36°21' E 017°55'510.3
2017-Sep-17 08:00N 36°21' E 018°01'510.2
2017-Sep-17 07:30N 36°21' E 018°08'510.1
2017-Sep-17 07:00N 36°21' E 018°14'510.4
2017-Sep-17 06:30N 36°21' E 018°20'510.5
2017-Sep-17 06:00N 36°21' E 018°27'510.6
2017-Sep-17 05:30N 36°21' E 018°33'510.7
2017-Sep-17 05:00N 36°21' E 018°40'510.9
2017-Sep-17 04:30N 36°21' E 018°47'611.3
2017-Sep-17 04:00N 36°21' E 018°54'611.2
2017-Sep-17 03:30N 36°21' E 019°01'611.3
2017-Sep-17 02:58N 36°22' E 019°08'511.0
2017-Sep-17 02:30N 36°22' E 019°15'711.2
2017-Sep-17 01:53N 36°21' E 019°23'411.2
2017-Sep-17 01:30N 36°21' E 019°28'1011.1
2017-Sep-17 00:38N 36°21' E 019°40'110.8
2017-Sep-17 00:30N 36°21' E 019°42'510.8
2017-Sep-17 00:00N 36°21' E 019°49'510.7
2017-Sep-16 23:30N 36°20' E 019°56'510.9
2017-Sep-16 23:00N 36°21' E 020°02'611.0
2017-Sep-16 22:30N 36°21' E 020°09'1711.0
2017-Sep-16 20:56N 36°21' E 020°31'511.0
2017-Sep-16 20:30N 36°22' E 020°36'1510.7
2017-Sep-16 19:09N 36°22' E 020°54'510.2
2017-Sep-16 18:39N 36°22' E 021°01'20 9.9
2017-Sep-16 16:39N 36°21' E 021°25'2 9.7
2017-Sep-16 16:28N 36°21' E 021°28'4 9.6
2017-Sep-16 16:00N 36°21' E 021°33'5 9.6
2017-Sep-16 15:30N 36°21' E 021°39'15 9.8
2017-Sep-16 13:58N 36°21' E 021°58'82 9.3
2017-Sep-16 05:12N 36°50' E 023°33'211.1
2017-Sep-16 05:00N 36°52' E 023°34'511.2
2017-Sep-16 04:30N 36°57' E 023°37'511.0
2017-Sep-16 04:00N 37°02' E 023°41'610.7
2017-Sep-16 03:27N 37°07' E 023°45'510.3
2017-Sep-16 03:00N 37°11' E 023°48'  

Dump ship's entire track history